sensor_id;sensor_type;location;lat;lon;timestamp;temperature;humidity
60293;DHT22;52402;52.670;6.750;2023-06-19T00:00:29;21.00;99.60
60293;DHT22;52402;52.670;6.750;2023-06-19T00:02:56;21.00;99.60
60293;DHT22;52402;52.670;6.750;2023-06-19T00:05:21;21.00;99.40
60293;DHT22;52402;52.670;6.750;2023-06-19T00:07:49;21.00;99.90
60293;DHT22;52402;52.670;6.750;2023-06-19T00:10:14;20.90;99.90
60293;DHT22;52402;52.670;6.750;2023-06-19T00:12:40;20.90;99.40
60293;DHT22;52402;52.670;6.750;2023-06-19T00:15:06;21.00;99.30
60293;DHT22;52402;52.670;6.750;2023-06-19T00:17:33;21.00;98.80
60293;DHT22;52402;52.670;6.750;2023-06-19T00:19:58;21.00;99.20
60293;DHT22;52402;52.670;6.750;2023-06-19T00:22:25;21.10;98.50
60293;DHT22;52402;52.670;6.750;2023-06-19T00:24:51;21.10;98.30
60293;DHT22;52402;52.670;6.750;2023-06-19T00:27:17;21.10;98.30
60293;DHT22;52402;52.670;6.750;2023-06-19T00:29:43;21.10;98.60
60293;DHT22;52402;52.670;6.750;2023-06-19T00:32:09;21.20;98.30
60293;DHT22;52402;52.670;6.750;2023-06-19T00:34:35;21.10;97.90
60293;DHT22;52402;52.670;6.750;2023-06-19T00:37:03;21.20;98.20
60293;DHT22;52402;52.670;6.750;2023-06-19T00:39:28;21.20;98.40
60293;DHT22;52402;52.670;6.750;2023-06-19T00:41:55;21.20;98.50
60293;DHT22;52402;52.670;6.750;2023-06-19T00:44:21;21.20;98.50
60293;DHT22;52402;52.670;6.750;2023-06-19T00:46:57;21.20;98.20
60293;DHT22;52402;52.670;6.750;2023-06-19T00:49:24;21.20;98.50
60293;DHT22;52402;52.670;6.750;2023-06-19T00:51:51;21.20;98.50
60293;DHT22;52402;52.670;6.750;2023-06-19T00:54:18;21.10;98.40
60293;DHT22;52402;52.670;6.750;2023-06-19T00:56:44;21.20;98.40
60293;DHT22;52402;52.670;6.750;2023-06-19T00:59:15;21.10;98.00
60293;DHT22;52402;52.670;6.750;2023-06-19T01:01:41;21.10;98.20
60293;DHT22;52402;52.670;6.750;2023-06-19T01:04:07;21.10;98.20
60293;DHT22;52402;52.670;6.750;2023-06-19T01:07:02;21.10;98.20
60293;DHT22;52402;52.670;6.750;2023-06-19T01:09:31;21.10;98.20
60293;DHT22;52402;52.670;6.750;2023-06-19T01:12:05;21.10;98.40
60293;DHT22;52402;52.670;6.750;2023-06-19T01:14:57;21.10;98.50
60293;DHT22;52402;52.670;6.750;2023-06-19T01:17:23;21.00;98.60
60293;DHT22;52402;52.670;6.750;2023-06-19T01:19:49;21.10;98.60
60293;DHT22;52402;52.670;6.750;2023-06-19T01:22:25;21.10;98.70
60293;DHT22;52402;52.670;6.750;2023-06-19T01:24:51;21.00;98.50
60293;DHT22;52402;52.670;6.750;2023-06-19T01:27:17;21.00;98.80
60293;DHT22;52402;52.670;6.750;2023-06-19T01:29:42;21.00;99.10
60293;DHT22;52402;52.670;6.750;2023-06-19T01:32:17;20.90;98.90
60293;DHT22;52402;52.670;6.750;2023-06-19T01:34:45;20.90;99.20
60293;DHT22;52402;52.670;6.750;2023-06-19T01:37:12;20.90;98.90
60293;DHT22;52402;52.670;6.750;2023-06-19T01:39:39;20.90;98.90
60293;DHT22;52402;52.670;6.750;2023-06-19T01:42:06;20.90;99.00
60293;DHT22;52402;52.670;6.750;2023-06-19T01:44:35;20.90;98.90
60293;DHT22;52402;52.670;6.750;2023-06-19T01:47:10;20.90;99.00
60293;DHT22;52402;52.670;6.750;2023-06-19T01:52:26;20.80;99.20
60293;DHT22;52402;52.670;6.750;2023-06-19T01:54:51;20.80;99.60
60293;DHT22;52402;52.670;6.750;2023-06-19T01:57:17;20.70;99.60
60293;DHT22;52402;52.670;6.750;2023-06-19T01:59:43;20.70;99.80
60293;DHT22;52402;52.670;6.750;2023-06-19T02:02:09;20.70;99.70
60293;DHT22;52402;52.670;6.750;2023-06-19T02:04:35;20.70;99.70
60293;DHT22;52402;52.670;6.750;2023-06-19T02:07:01;20.70;99.60
60293;DHT22;52402;52.670;6.750;2023-06-19T02:09:27;20.70;99.80
60293;DHT22;52402;52.670;6.750;2023-06-19T02:11:53;20.70;99.70
60293;DHT22;52402;52.670;6.750;2023-06-19T02:14:18;20.70;99.80
60293;DHT22;52402;52.670;6.750;2023-06-19T02:16:44;20.70;99.90
60293;DHT22;52402;52.670;6.750;2023-06-19T02:19:10;20.70;99.90
60293;DHT22;52402;52.670;6.750;2023-06-19T02:21:36;20.70;99.90
60293;DHT22;52402;52.670;6.750;2023-06-19T02:24:02;20.70;99.90
60293;DHT22;52402;52.670;6.750;2023-06-19T02:26:28;20.60;99.90
60293;DHT22;52402;52.670;6.750;2023-06-19T02:28:55;20.70;99.90
60293;DHT22;52402;52.670;6.750;2023-06-19T02:31:22;20.70;99.90
60293;DHT22;52402;52.670;6.750;2023-06-19T02:33:47;20.70;99.90
60293;DHT22;52402;52.670;6.750;2023-06-19T02:36:13;20.70;99.90
60293;DHT22;52402;52.670;6.750;2023-06-19T02:38:39;20.80;99.90
60293;DHT22;52402;52.670;6.750;2023-06-19T02:41:04;20.80;99.90
60293;DHT22;52402;52.670;6.750;2023-06-19T02:43:30;20.80;99.90
60293;DHT22;52402;52.670;6.750;2023-06-19T02:45:55;20.80;99.90
60293;DHT22;52402;52.670;6.750;2023-06-19T02:48:21;20.80;99.90
60293;DHT22;52402;52.670;6.750;2023-06-19T02:50:48;20.80;99.90
60293;DHT22;52402;52.670;6.750;2023-06-19T02:53:14;20.80;99.90
60293;DHT22;52402;52.670;6.750;2023-06-19T02:55:42;20.80;99.90
60293;DHT22;52402;52.670;6.750;2023-06-19T02:58:07;20.90;99.90
60293;DHT22;52402;52.670;6.750;2023-06-19T03:00:33;20.90;99.90
60293;DHT22;52402;52.670;6.750;2023-06-19T03:02:58;20.90;99.90
60293;DHT22;52402;52.670;6.750;2023-06-19T03:05:26;20.90;99.90
60293;DHT22;52402;52.670;6.750;2023-06-19T03:07:55;20.90;99.90
60293;DHT22;52402;52.670;6.750;2023-06-19T03:10:20;21.00;99.90
60293;DHT22;52402;52.670;6.750;2023-06-19T03:12:46;21.00;99.90
60293;DHT22;52402;52.670;6.750;2023-06-19T03:15:11;20.90;99.90
60293;DHT22;52402;52.670;6.750;2023-06-19T03:17:37;20.90;99.90
60293;DHT22;52402;52.670;6.750;2023-06-19T03:20:03;20.90;99.90
60293;DHT22;52402;52.670;6.750;2023-06-19T03:22:31;20.90;99.90
60293;DHT22;52402;52.670;6.750;2023-06-19T03:24:57;20.90;99.90
60293;DHT22;52402;52.670;6.750;2023-06-19T03:27:23;20.90;99.90
60293;DHT22;52402;52.670;6.750;2023-06-19T03:29:50;20.90;99.90
60293;DHT22;52402;52.670;6.750;2023-06-19T03:32:15;20.90;99.90
60293;DHT22;52402;52.670;6.750;2023-06-19T03:34:42;20.90;99.90
60293;DHT22;52402;52.670;6.750;2023-06-19T03:37:07;20.90;99.90
60293;DHT22;52402;52.670;6.750;2023-06-19T03:39:33;20.90;99.90
60293;DHT22;52402;52.670;6.750;2023-06-19T03:41:58;20.90;99.90
60293;DHT22;52402;52.670;6.750;2023-06-19T03:44:24;20.90;99.90
60293;DHT22;52402;52.670;6.750;2023-06-19T03:46:50;21.00;99.90
60293;DHT22;52402;52.670;6.750;2023-06-19T03:49:16;20.90;99.90
60293;DHT22;52402;52.670;6.750;2023-06-19T03:51:42;21.00;99.90
60293;DHT22;52402;52.670;6.750;2023-06-19T03:54:08;21.00;99.90
60293;DHT22;52402;52.670;6.750;2023-06-19T03:56:34;21.00;99.90
60293;DHT22;52402;52.670;6.750;2023-06-19T03:58:59;21.00;99.90
60293;DHT22;52402;52.670;6.750;2023-06-19T04:01:25;21.10;99.90
60293;DHT22;52402;52.670;6.750;2023-06-19T04:03:50;21.10;99.90
60293;DHT22;52402;52.670;6.750;2023-06-19T04:06:16;21.10;99.90
60293;DHT22;52402;52.670;6.750;2023-06-19T04:08:41;21.00;99.90
60293;DHT22;52402;52.670;6.750;2023-06-19T04:11:07;21.00;99.90
60293;DHT22;52402;52.670;6.750;2023-06-19T04:13:33;20.90;99.90
60293;DHT22;52402;52.670;6.750;2023-06-19T04:15:58;20.90;99.90
60293;DHT22;52402;52.670;6.750;2023-06-19T04:18:24;20.80;99.90
60293;DHT22;52402;52.670;6.750;2023-06-19T04:20:49;20.80;99.90
60293;DHT22;52402;52.670;6.750;2023-06-19T04:23:15;20.80;99.90
60293;DHT22;52402;52.670;6.750;2023-06-19T04:25:40;20.70;99.90
60293;DHT22;52402;52.670;6.750;2023-06-19T04:28:06;20.70;99.90
60293;DHT22;52402;52.670;6.750;2023-06-19T04:30:32;20.70;99.90
60293;DHT22;52402;52.670;6.750;2023-06-19T04:32:58;20.70;99.90
60293;DHT22;52402;52.670;6.750;2023-06-19T04:35:24;20.80;99.90
60293;DHT22;52402;52.670;6.750;2023-06-19T04:37:49;20.90;99.90
60293;DHT22;52402;52.670;6.750;2023-06-19T04:40:15;20.90;99.90
60293;DHT22;52402;52.670;6.750;2023-06-19T04:42:41;20.90;99.90
60293;DHT22;52402;52.670;6.750;2023-06-19T04:45:07;20.90;99.90
60293;DHT22;52402;52.670;6.750;2023-06-19T04:47:33;21.00;99.90
60293;DHT22;52402;52.670;6.750;2023-06-19T04:50:02;21.00;99.90
60293;DHT22;52402;52.670;6.750;2023-06-19T04:52:27;21.00;99.90
60293;DHT22;52402;52.670;6.750;2023-06-19T04:54:53;21.00;99.90
60293;DHT22;52402;52.670;6.750;2023-06-19T04:57:19;21.00;99.90
60293;DHT22;52402;52.670;6.750;2023-06-19T04:59:45;20.90;99.90
60293;DHT22;52402;52.670;6.750;2023-06-19T05:02:11;20.80;99.90
60293;DHT22;52402;52.670;6.750;2023-06-19T05:04:36;20.80;99.90
60293;DHT22;52402;52.670;6.750;2023-06-19T05:07:02;20.70;99.90
60293;DHT22;52402;52.670;6.750;2023-06-19T05:09:28;20.60;99.90
60293;DHT22;52402;52.670;6.750;2023-06-19T05:11:54;20.60;99.90
60293;DHT22;52402;52.670;6.750;2023-06-19T05:14:19;20.50;99.90
60293;DHT22;52402;52.670;6.750;2023-06-19T05:16:45;20.50;99.90
60293;DHT22;52402;52.670;6.750;2023-06-19T05:19:11;20.40;99.90
60293;DHT22;52402;52.670;6.750;2023-06-19T05:21:36;20.50;99.90
60293;DHT22;52402;52.670;6.750;2023-06-19T05:24:02;20.50;99.90
60293;DHT22;52402;52.670;6.750;2023-06-19T05:26:28;20.50;99.90
60293;DHT22;52402;52.670;6.750;2023-06-19T05:28:53;20.50;99.90
60293;DHT22;52402;52.670;6.750;2023-06-19T05:31:19;20.60;99.90
60293;DHT22;52402;52.670;6.750;2023-06-19T05:33:44;20.60;99.90
60293;DHT22;52402;52.670;6.750;2023-06-19T05:36:11;20.60;99.90
60293;DHT22;52402;52.670;6.750;2023-06-19T05:38:36;20.60;99.90
60293;DHT22;52402;52.670;6.750;2023-06-19T05:41:03;20.70;99.90
60293;DHT22;52402;52.670;6.750;2023-06-19T05:43:28;20.70;99.90
60293;DHT22;52402;52.670;6.750;2023-06-19T05:45:54;20.80;99.90
60293;DHT22;52402;52.670;6.750;2023-06-19T05:48:25;20.80;99.90
60293;DHT22;52402;52.670;6.750;2023-06-19T05:50:50;20.90;99.90
60293;DHT22;52402;52.670;6.750;2023-06-19T05:53:16;20.90;99.90
60293;DHT22;52402;52.670;6.750;2023-06-19T05:55:42;21.00;99.90
60293;DHT22;52402;52.670;6.750;2023-06-19T05:58:08;21.00;99.90
60293;DHT22;52402;52.670;6.750;2023-06-19T06:00:34;21.10;99.90
60293;DHT22;52402;52.670;6.750;2023-06-19T06:02:59;21.20;99.90
60293;DHT22;52402;52.670;6.750;2023-06-19T06:05:26;21.30;99.90
60293;DHT22;52402;52.670;6.750;2023-06-19T06:07:52;21.30;99.90
60293;DHT22;52402;52.670;6.750;2023-06-19T06:10:20;21.30;99.90
60293;DHT22;52402;52.670;6.750;2023-06-19T06:12:46;21.40;99.90
60293;DHT22;52402;52.670;6.750;2023-06-19T06:15:11;21.40;99.90
60293;DHT22;52402;52.670;6.750;2023-06-19T06:17:37;21.40;99.90
60293;DHT22;52402;52.670;6.750;2023-06-19T06:20:03;21.40;99.90
60293;DHT22;52402;52.670;6.750;2023-06-19T06:22:34;21.40;99.90
60293;DHT22;52402;52.670;6.750;2023-06-19T06:25:00;21.30;99.90
60293;DHT22;52402;52.670;6.750;2023-06-19T06:27:25;21.40;99.90
60293;DHT22;52402;52.670;6.750;2023-06-19T06:29:51;21.40;99.90
60293;DHT22;52402;52.670;6.750;2023-06-19T06:32:17;21.50;99.90
60293;DHT22;52402;52.670;6.750;2023-06-19T06:34:43;21.50;99.90
60293;DHT22;52402;52.670;6.750;2023-06-19T06:37:09;21.70;99.90
60293;DHT22;52402;52.670;6.750;2023-06-19T06:39:34;21.70;99.90
60293;DHT22;52402;52.670;6.750;2023-06-19T06:42:00;21.70;99.90
60293;DHT22;52402;52.670;6.750;2023-06-19T06:44:26;21.70;99.90
60293;DHT22;52402;52.670;6.750;2023-06-19T06:46:51;21.70;99.90
60293;DHT22;52402;52.670;6.750;2023-06-19T06:49:17;21.80;99.90
60293;DHT22;52402;52.670;6.750;2023-06-19T06:51:43;21.90;99.90
60293;DHT22;52402;52.670;6.750;2023-06-19T06:54:09;21.90;99.90
60293;DHT22;52402;52.670;6.750;2023-06-19T06:56:35;22.00;99.90
60293;DHT22;52402;52.670;6.750;2023-06-19T06:59:01;21.90;99.90
60293;DHT22;52402;52.670;6.750;2023-06-19T07:01:26;21.90;99.90
60293;DHT22;52402;52.670;6.750;2023-06-19T07:03:52;21.90;99.90
60293;DHT22;52402;52.670;6.750;2023-06-19T07:06:19;21.90;99.90
60293;DHT22;52402;52.670;6.750;2023-06-19T07:08:44;21.90;99.90
60293;DHT22;52402;52.670;6.750;2023-06-19T07:11:13;21.90;99.90
60293;DHT22;52402;52.670;6.750;2023-06-19T07:13:38;21.90;99.90
60293;DHT22;52402;52.670;6.750;2023-06-19T07:16:05;21.90;99.90
60293;DHT22;52402;52.670;6.750;2023-06-19T07:18:30;22.00;99.90
60293;DHT22;52402;52.670;6.750;2023-06-19T07:20:56;22.00;99.90
60293;DHT22;52402;52.670;6.750;2023-06-19T07:23:22;22.00;99.90
60293;DHT22;52402;52.670;6.750;2023-06-19T07:25:48;22.10;99.90
60293;DHT22;52402;52.670;6.750;2023-06-19T07:28:14;22.00;99.90
60293;DHT22;52402;52.670;6.750;2023-06-19T07:30:40;22.00;99.90
60293;DHT22;52402;52.670;6.750;2023-06-19T07:33:05;21.90;99.90
60293;DHT22;52402;52.670;6.750;2023-06-19T07:35:31;21.80;99.90
60293;DHT22;52402;52.670;6.750;2023-06-19T07:37:57;21.80;99.90
60293;DHT22;52402;52.670;6.750;2023-06-19T07:40:22;22.00;99.90
60293;DHT22;52402;52.670;6.750;2023-06-19T07:42:48;22.20;99.90
60293;DHT22;52402;52.670;6.750;2023-06-19T07:45:13;22.30;99.90
60293;DHT22;52402;52.670;6.750;2023-06-19T07:47:39;22.40;99.90
60293;DHT22;52402;52.670;6.750;2023-06-19T07:50:05;22.40;99.90
60293;DHT22;52402;52.670;6.750;2023-06-19T07:52:31;22.40;99.90
60293;DHT22;52402;52.670;6.750;2023-06-19T07:54:57;22.40;99.90
60293;DHT22;52402;52.670;6.750;2023-06-19T07:57:24;22.40;99.90
60293;DHT22;52402;52.670;6.750;2023-06-19T07:59:51;22.30;99.90
60293;DHT22;52402;52.670;6.750;2023-06-19T08:02:17;22.20;99.90
60293;DHT22;52402;52.670;6.750;2023-06-19T08:04:43;22.30;99.90
60293;DHT22;52402;52.670;6.750;2023-06-19T08:07:08;22.20;99.90
60293;DHT22;52402;52.670;6.750;2023-06-19T08:09:34;22.10;99.90
60293;DHT22;52402;52.670;6.750;2023-06-19T08:12:01;22.00;99.90
60293;DHT22;52402;52.670;6.750;2023-06-19T08:14:27;22.00;99.90
60293;DHT22;52402;52.670;6.750;2023-06-19T08:16:52;22.00;99.90
60293;DHT22;52402;52.670;6.750;2023-06-19T08:19:18;22.00;99.90
60293;DHT22;52402;52.670;6.750;2023-06-19T08:21:43;22.00;99.90
60293;DHT22;52402;52.670;6.750;2023-06-19T08:24:09;21.90;99.90
60293;DHT22;52402;52.670;6.750;2023-06-19T08:26:34;21.80;99.90
60293;DHT22;52402;52.670;6.750;2023-06-19T08:29:00;21.80;99.90
60293;DHT22;52402;52.670;6.750;2023-06-19T08:31:26;21.80;99.90
60293;DHT22;52402;52.670;6.750;2023-06-19T08:33:56;21.80;99.90
60293;DHT22;52402;52.670;6.750;2023-06-19T08:36:22;21.80;99.90
60293;DHT22;52402;52.670;6.750;2023-06-19T08:38:48;21.90;99.90
60293;DHT22;52402;52.670;6.750;2023-06-19T08:41:16;22.10;99.90
60293;DHT22;52402;52.670;6.750;2023-06-19T08:43:42;22.30;99.90
60293;DHT22;52402;52.670;6.750;2023-06-19T08:46:14;22.50;99.90
60293;DHT22;52402;52.670;6.750;2023-06-19T08:48:43;22.50;99.90
60293;DHT22;52402;52.670;6.750;2023-06-19T08:51:09;22.30;99.90
60293;DHT22;52402;52.670;6.750;2023-06-19T08:53:43;22.20;99.90
60293;DHT22;52402;52.670;6.750;2023-06-19T08:56:09;22.20;99.90
60293;DHT22;52402;52.670;6.750;2023-06-19T08:58:34;22.00;99.90
60293;DHT22;52402;52.670;6.750;2023-06-19T09:01:00;21.90;99.90
60293;DHT22;52402;52.670;6.750;2023-06-19T09:03:25;21.90;99.90
60293;DHT22;52402;52.670;6.750;2023-06-19T09:05:51;21.80;99.90
60293;DHT22;52402;52.670;6.750;2023-06-19T09:08:18;21.80;99.90
60293;DHT22;52402;52.670;6.750;2023-06-19T09:11:01;21.90;99.90
60293;DHT22;52402;52.670;6.750;2023-06-19T09:13:28;21.90;99.90
60293;DHT22;52402;52.670;6.750;2023-06-19T09:15:59;21.90;99.90
60293;DHT22;52402;52.670;6.750;2023-06-19T09:18:25;22.10;99.90
60293;DHT22;52402;52.670;6.750;2023-06-19T09:20:53;22.20;99.90
60293;DHT22;52402;52.670;6.750;2023-06-19T09:23:19;22.50;99.90
60293;DHT22;52402;52.670;6.750;2023-06-19T09:25:52;22.70;99.90
60293;DHT22;52402;52.670;6.750;2023-06-19T09:28:20;22.70;99.90
60293;DHT22;52402;52.670;6.750;2023-06-19T09:30:56;22.60;99.90
60293;DHT22;52402;52.670;6.750;2023-06-19T09:33:30;22.60;99.90
60293;DHT22;52402;52.670;6.750;2023-06-19T09:35:58;22.80;99.90
60293;DHT22;52402;52.670;6.750;2023-06-19T09:38:26;23.00;99.90
60293;DHT22;52402;52.670;6.750;2023-06-19T09:40:52;23.40;99.90
60293;DHT22;52402;52.670;6.750;2023-06-19T09:43:30;23.60;99.90
60293;DHT22;52402;52.670;6.750;2023-06-19T09:45:58;23.90;99.90
60293;DHT22;52402;52.670;6.750;2023-06-19T09:48:29;24.20;99.90
60293;DHT22;52402;52.670;6.750;2023-06-19T09:51:21;24.20;99.90
60293;DHT22;52402;52.670;6.750;2023-06-19T09:53:47;24.20;99.90
60293;DHT22;52402;52.670;6.750;2023-06-19T09:56:13;24.20;99.90
60293;DHT22;52402;52.670;6.750;2023-06-19T09:58:41;24.20;99.90
60293;DHT22;52402;52.670;6.750;2023-06-19T10:01:07;24.20;99.90
60293;DHT22;52402;52.670;6.750;2023-06-19T10:03:34;24.40;99.90
60293;DHT22;52402;52.670;6.750;2023-06-19T10:06:02;24.70;99.90
60293;DHT22;52402;52.670;6.750;2023-06-19T10:08:37;24.80;99.90
60293;DHT22;52402;52.670;6.750;2023-06-19T10:11:03;24.90;99.90
60293;DHT22;52402;52.670;6.750;2023-06-19T10:13:34;25.20;99.90
60293;DHT22;52402;52.670;6.750;2023-06-19T10:16:00;25.20;99.90
60293;DHT22;52402;52.670;6.750;2023-06-19T10:18:26;25.40;99.90
60293;DHT22;52402;52.670;6.750;2023-06-19T10:20:54;25.10;99.90
60293;DHT22;52402;52.670;6.750;2023-06-19T10:23:22;24.90;99.90
60293;DHT22;52402;52.670;6.750;2023-06-19T10:25:58;24.60;99.90
60293;DHT22;52402;52.670;6.750;2023-06-19T10:28:28;24.50;99.90
60293;DHT22;52402;52.670;6.750;2023-06-19T10:31:03;24.50;99.90
60293;DHT22;52402;52.670;6.750;2023-06-19T10:33:31;24.50;99.90
60293;DHT22;52402;52.670;6.750;2023-06-19T10:35:59;24.80;99.90
60293;DHT22;52402;52.670;6.750;2023-06-19T10:38:28;24.90;99.90
60293;DHT22;52402;52.670;6.750;2023-06-19T10:40:54;24.80;99.90
60293;DHT22;52402;52.670;6.750;2023-06-19T10:43:24;24.80;99.90
60293;DHT22;52402;52.670;6.750;2023-06-19T10:45:53;25.00;99.90
60293;DHT22;52402;52.670;6.750;2023-06-19T10:48:20;25.20;99.90
60293;DHT22;52402;52.670;6.750;2023-06-19T10:50:45;25.00;99.50
60293;DHT22;52402;52.670;6.750;2023-06-19T10:53:32;25.30;99.50
60293;DHT22;52402;52.670;6.750;2023-06-19T10:55:59;25.50;99.20
60293;DHT22;52402;52.670;6.750;2023-06-19T10:58:26;25.80;99.00
60293;DHT22;52402;52.670;6.750;2023-06-19T11:00:52;25.80;98.20
60293;DHT22;52402;52.670;6.750;2023-06-19T11:03:19;25.90;98.30
60293;DHT22;52402;52.670;6.750;2023-06-19T11:05:46;25.60;98.20
60293;DHT22;52402;52.670;6.750;2023-06-19T11:08:20;25.30;98.10
60293;DHT22;52402;52.670;6.750;2023-06-19T11:10:46;24.80;98.90
60293;DHT22;52402;52.670;6.750;2023-06-19T11:13:16;25.00;99.20
60293;DHT22;52402;52.670;6.750;2023-06-19T11:15:43;25.40;98.90
60293;DHT22;52402;52.670;6.750;2023-06-19T11:18:09;25.70;98.60
60293;DHT22;52402;52.670;6.750;2023-06-19T11:23:13;25.00;98.60
60293;DHT22;52402;52.670;6.750;2023-06-19T11:25:40;24.80;99.60
60293;DHT22;52402;52.670;6.750;2023-06-19T11:28:14;25.10;98.90
60293;DHT22;52402;52.670;6.750;2023-06-19T11:30:40;25.30;98.80
60293;DHT22;52402;52.670;6.750;2023-06-19T11:33:20;25.60;98.60
60293;DHT22;52402;52.670;6.750;2023-06-19T11:35:49;25.90;98.00
60293;DHT22;52402;52.670;6.750;2023-06-19T11:38:19;25.50;97.90
60293;DHT22;52402;52.670;6.750;2023-06-19T11:40:45;25.90;98.20
60293;DHT22;52402;52.670;6.750;2023-06-19T11:43:11;26.30;97.70
60293;DHT22;52402;52.670;6.750;2023-06-19T11:45:50;26.50;97.90
60293;DHT22;52402;52.670;6.750;2023-06-19T11:48:26;26.20;96.40
60293;DHT22;52402;52.670;6.750;2023-06-19T11:50:52;25.90;96.40
60293;DHT22;52402;52.670;6.750;2023-06-19T11:53:23;26.00;97.00
60293;DHT22;52402;52.670;6.750;2023-06-19T11:55:49;26.50;97.40
60293;DHT22;52402;52.670;6.750;2023-06-19T11:58:15;26.30;96.70
60293;DHT22;52402;52.670;6.750;2023-06-19T12:00:42;26.40;96.40
60293;DHT22;52402;52.670;6.750;2023-06-19T12:03:08;26.60;96.80
60293;DHT22;52402;52.670;6.750;2023-06-19T12:05:35;26.40;96.20
60293;DHT22;52402;52.670;6.750;2023-06-19T12:08:01;26.30;95.80
60293;DHT22;52402;52.670;6.750;2023-06-19T12:10:33;26.30;96.10
60293;DHT22;52402;52.670;6.750;2023-06-19T12:13:00;26.50;96.90
60293;DHT22;52402;52.670;6.750;2023-06-19T12:15:25;26.70;96.00
60293;DHT22;52402;52.670;6.750;2023-06-19T12:17:52;26.70;96.40
60293;DHT22;52402;52.670;6.750;2023-06-19T12:20:18;27.10;96.50
60293;DHT22;52402;52.670;6.750;2023-06-19T12:22:44;27.30;96.20
60293;DHT22;52402;52.670;6.750;2023-06-19T12:25:09;27.40;95.50
60293;DHT22;52402;52.670;6.750;2023-06-19T12:27:37;27.40;95.90
60293;DHT22;52402;52.670;6.750;2023-06-19T12:30:03;26.90;95.40
60293;DHT22;52402;52.670;6.750;2023-06-19T12:32:28;26.90;95.60
60293;DHT22;52402;52.670;6.750;2023-06-19T12:34:54;26.80;95.40
60293;DHT22;52402;52.670;6.750;2023-06-19T12:37:20;26.80;95.70
60293;DHT22;52402;52.670;6.750;2023-06-19T12:39:47;26.70;95.50
60293;DHT22;52402;52.670;6.750;2023-06-19T12:42:12;26.60;95.80
60293;DHT22;52402;52.670;6.750;2023-06-19T12:44:39;25.90;96.00
60293;DHT22;52402;52.670;6.750;2023-06-19T12:47:05;26.10;96.10
60293;DHT22;52402;52.670;6.750;2023-06-19T12:49:31;26.20;96.40
60293;DHT22;52402;52.670;6.750;2023-06-19T12:51:57;26.20;95.50
60293;DHT22;52402;52.670;6.750;2023-06-19T12:54:23;26.20;96.30
60293;DHT22;52402;52.670;6.750;2023-06-19T12:56:49;26.00;95.80
60293;DHT22;52402;52.670;6.750;2023-06-19T12:59:15;25.90;95.50
60293;DHT22;52402;52.670;6.750;2023-06-19T13:01:41;26.20;96.60
60293;DHT22;52402;52.670;6.750;2023-06-19T13:04:07;26.20;95.80
60293;DHT22;52402;52.670;6.750;2023-06-19T13:06:33;26.70;96.70
60293;DHT22;52402;52.670;6.750;2023-06-19T13:08:58;27.50;97.00
60293;DHT22;52402;52.670;6.750;2023-06-19T13:11:24;27.80;96.10
60293;DHT22;52402;52.670;6.750;2023-06-19T13:13:50;28.30;95.70
60293;DHT22;52402;52.670;6.750;2023-06-19T13:16:15;28.90;95.20
60293;DHT22;52402;52.670;6.750;2023-06-19T13:18:44;28.40;93.90
60293;DHT22;52402;52.670;6.750;2023-06-19T13:21:11;28.30;93.50
60293;DHT22;52402;52.670;6.750;2023-06-19T13:23:37;28.20;93.70
60293;DHT22;52402;52.670;6.750;2023-06-19T13:26:02;28.00;93.20
60293;DHT22;52402;52.670;6.750;2023-06-19T13:28:28;27.90;93.80
60293;DHT22;52402;52.670;6.750;2023-06-19T13:30:54;28.00;94.10
60293;DHT22;52402;52.670;6.750;2023-06-19T13:33:19;27.70;93.40
60293;DHT22;52402;52.670;6.750;2023-06-19T13:35:45;27.60;93.40
60293;DHT22;52402;52.670;6.750;2023-06-19T13:38:11;27.90;94.00
60293;DHT22;52402;52.670;6.750;2023-06-19T13:40:36;27.90;92.90
60293;DHT22;52402;52.670;6.750;2023-06-19T13:43:02;27.70;93.10
60293;DHT22;52402;52.670;6.750;2023-06-19T13:45:29;28.20;93.00
60293;DHT22;52402;52.670;6.750;2023-06-19T13:47:56;27.80;92.80
60293;DHT22;52402;52.670;6.750;2023-06-19T13:50:21;28.00;92.40
60293;DHT22;52402;52.670;6.750;2023-06-19T13:52:49;28.30;92.90
60293;DHT22;52402;52.670;6.750;2023-06-19T13:55:15;28.60;92.40
60293;DHT22;52402;52.670;6.750;2023-06-19T13:57:42;28.60;92.10
60293;DHT22;52402;52.670;6.750;2023-06-19T14:00:09;28.90;91.40
60293;DHT22;52402;52.670;6.750;2023-06-19T14:02:36;28.90;92.30
60293;DHT22;52402;52.670;6.750;2023-06-19T14:05:05;28.60;91.20
60293;DHT22;52402;52.670;6.750;2023-06-19T14:07:32;29.00;92.30
60293;DHT22;52402;52.670;6.750;2023-06-19T14:09:57;28.60;90.70
60293;DHT22;52402;52.670;6.750;2023-06-19T14:12:23;28.60;91.10
60293;DHT22;52402;52.670;6.750;2023-06-19T14:14:48;28.70;92.10
60293;DHT22;52402;52.670;6.750;2023-06-19T14:17:14;28.60;91.00
60293;DHT22;52402;52.670;6.750;2023-06-19T14:19:40;28.70;91.00
60293;DHT22;52402;52.670;6.750;2023-06-19T14:22:05;28.70;92.10
60293;DHT22;52402;52.670;6.750;2023-06-19T14:24:31;28.60;90.30
60293;DHT22;52402;52.670;6.750;2023-06-19T14:26:56;28.10;91.10
60293;DHT22;52402;52.670;6.750;2023-06-19T14:29:22;28.20;91.10
60293;DHT22;52402;52.670;6.750;2023-06-19T14:31:50;28.40;91.60
60293;DHT22;52402;52.670;6.750;2023-06-19T14:34:15;28.30;91.60
60293;DHT22;52402;52.670;6.750;2023-06-19T14:36:41;28.50;91.80
60293;DHT22;52402;52.670;6.750;2023-06-19T14:39:07;28.50;90.80
60293;DHT22;52402;52.670;6.750;2023-06-19T14:41:33;28.60;91.70
60293;DHT22;52402;52.670;6.750;2023-06-19T14:43:58;29.00;91.20
60293;DHT22;52402;52.670;6.750;2023-06-19T14:46:24;29.30;91.80
60293;DHT22;52402;52.670;6.750;2023-06-19T14:48:49;29.50;91.00
60293;DHT22;52402;52.670;6.750;2023-06-19T14:51:15;28.60;90.40
60293;DHT22;52402;52.670;6.750;2023-06-19T14:53:40;28.50;90.30
60293;DHT22;52402;52.670;6.750;2023-06-19T14:56:06;28.20;90.80
60293;DHT22;52402;52.670;6.750;2023-06-19T14:58:32;27.90;90.90
60293;DHT22;52402;52.670;6.750;2023-06-19T15:00:57;27.70;91.30
60293;DHT22;52402;52.670;6.750;2023-06-19T15:03:23;27.50;91.70
60293;DHT22;52402;52.670;6.750;2023-06-19T15:05:49;27.90;91.60
60293;DHT22;52402;52.670;6.750;2023-06-19T15:08:14;27.80;91.70
60293;DHT22;52402;52.670;6.750;2023-06-19T15:10:46;28.00;92.00
60293;DHT22;52402;52.670;6.750;2023-06-19T15:13:12;27.60;91.00
60293;DHT22;52402;52.670;6.750;2023-06-19T15:15:37;27.60;91.40
60293;DHT22;52402;52.670;6.750;2023-06-19T15:18:03;27.80;92.20
60293;DHT22;52402;52.670;6.750;2023-06-19T15:20:29;28.10;90.00
60293;DHT22;52402;52.670;6.750;2023-06-19T15:22:54;28.10;88.80
60293;DHT22;52402;52.670;6.750;2023-06-19T15:25:20;28.30;90.20
60293;DHT22;52402;52.670;6.750;2023-06-19T15:27:45;28.40;88.60
60293;DHT22;52402;52.670;6.750;2023-06-19T15:30:11;28.50;87.70
60293;DHT22;52402;52.670;6.750;2023-06-19T15:32:37;28.60;89.60